Time;durP1;ratioP1;P1;durP2;ratioP2;P2;SDS_P1;SDS_P2;PMS_P1;PMS_P2;Temp;Humidity;BMP_temperature;BMP_pressure;BME280_temperature;BME280_humidity;BME280_pressure;Samples;Min_cycle;Max_cycle;Signal;HPM_P1;HPM_P2
2022/07/23 00:00:49;;;;;;;17.98;9.25;;;;;;;18.59;68.76;97833.00;10378391;28;20539;-55
2022/07/23 00:05:48;;;;;;;14.77;9.10;;;;;;;18.56;68.75;97840.13;10377676;28;20071;-55
2022/07/23 00:10:47;;;;;;;16.15;10.15;;;;;;;18.50;69.03;97832.44;10377253;28;20112;-56
2022/07/23 00:15:46;;;;;;;14.30;9.57;;;;;;;18.43;69.30;97836.16;10377257;28;20033;-56
2022/07/23 00:20:45;;;;;;;10.65;8.02;;;;;;;18.35;69.63;97836.41;10376861;28;20036;-55
2022/07/23 00:25:45;;;;;;;13.18;8.63;;;;;;;18.22;69.65;97830.66;10376792;28;20033;-55
2022/07/23 00:30:44;;;;;;;16.33;10.48;;;;;;;18.16;70.12;97839.59;10376521;28;20077;-55
2022/07/23 00:35:43;;;;;;;13.13;8.80;;;;;;;18.11;70.24;97825.75;10375883;28;20075;-55
2022/07/23 00:40:42;;;;;;;13.10;9.63;;;;;;;18.08;70.57;97831.09;10376112;28;20072;-55
2022/07/23 00:45:41;;;;;;;14.95;9.43;;;;;;;18.06;70.88;97826.78;10376545;28;20076;-55
2022/07/23 00:50:40;;;;;;;14.68;9.00;;;;;;;18.00;70.92;97814.69;10375676;28;20075;-55
2022/07/23 00:55:39;;;;;;;16.42;8.93;;;;;;;17.96;71.06;97813.06;10375681;28;20315;-55
2022/07/23 01:00:38;;;;;;;13.15;9.30;;;;;;;17.88;71.49;97810.69;10375435;28;20071;-55
2022/07/23 01:05:38;;;;;;;14.05;9.23;;;;;;;17.88;71.82;97818.56;10375199;28;20484;-55
2022/07/23 01:10:37;;;;;;;14.05;9.98;;;;;;;17.85;72.35;97823.06;10375141;28;20129;-55
2022/07/23 01:15:38;;;;;;;14.70;9.82;;;;;;;17.76;72.72;97817.16;10375060;28;20068;-55
2022/07/23 01:20:37;;;;;;;14.82;10.13;;;;;;;17.69;72.51;97810.31;10374391;28;20064;-55
2022/07/23 01:25:36;;;;;;;15.70;9.88;;;;;;;17.70;72.73;97819.06;10374441;28;20072;-55
2022/07/23 01:30:35;;;;;;;15.90;10.07;;;;;;;17.62;73.33;97819.28;10374167;28;20072;-55
2022/07/23 01:35:33;;;;;;;19.83;10.63;;;;;;;17.47;73.59;97814.44;10374182;28;20029;-55
2022/07/23 01:40:32;;;;;;;;;;;;;;;17.34;74.12;97817.41;10373938;28;20053;-55
2022/07/23 01:45:31;;;;;;;17.47;10.83;;;;;;;17.26;74.44;97808.91;10373437;28;20384;-55
2022/07/23 01:50:30;;;;;;;;;;;;;;;17.15;74.90;97813.56;10374256;28;20443;-55
2022/07/23 01:55:29;;;;;;;14.73;11.30;;;;;;;17.09;75.29;97805.84;10373596;28;19909;-55
2022/07/23 02:00:28;;;;;;;;;;;;;;;17.00;75.45;97808.72;10373804;28;20062;-55
2022/07/23 02:05:28;;;;;;;17.93;11.27;;;;;;;16.89;75.88;97809.00;10373260;28;19999;-55
2022/07/23 02:10:27;;;;;;;18.13;11.07;;;;;;;16.82;76.01;97805.69;10373043;28;20072;-55
2022/07/23 02:15:28;;;;;;;12.55;10.05;;;;;;;16.73;76.84;97803.25;10372688;28;20068;-55
2022/07/23 02:20:27;;;;;;;14.88;10.43;;;;;;;16.68;77.02;97802.50;10372401;28;20076;-55
2022/07/23 02:25:26;;;;;;;;;;;;;;;16.69;76.72;97806.84;10372951;28;20033;-55
2022/07/23 02:30:25;;;;;;;14.90;9.60;;;;;;;16.66;76.76;97805.16;10372014;28;19913;-55
2022/07/23 02:35:24;;;;;;;;;;;;;;;16.65;76.65;97808.69;10372435;28;20383;-55
2022/07/23 02:40:22;;;;;;;12.13;9.27;;;;;;;16.66;76.63;97814.78;10372075;28;19920;-55
2022/07/23 02:45:21;;;;;;;;;;;;;;;16.65;76.54;97813.03;10372165;28;20495;-55
2022/07/23 02:50:20;;;;;;;14.13;9.57;;;;;;;16.60;77.30;97821.03;10370661;28;20291;-55
2022/07/23 02:55:19;;;;;;;15.68;10.48;;;;;;;16.62;77.32;97821.00;10371784;28;20496;-55
2022/07/23 03:00:18;;;;;;;15.88;10.30;;;;;;;16.48;77.88;97816.09;10370644;28;20075;-55
2022/07/23 03:05:17;;;;;;;;;;;;;;;16.33;78.24;97827.78;10371646;28;20282;-55
2022/07/23 03:10:16;;;;;;;14.70;10.87;;;;;;;16.15;78.45;97833.44;10371331;28;19947;-57
2022/07/23 03:15:15;;;;;;;;;;;;;;;16.10;78.40;97836.16;10371736;28;20068;-55
2022/07/23 03:20:14;;;;;;;15.20;10.47;;;;;;;16.07;78.53;97836.22;10371463;28;19915;-55
2022/07/23 03:25:12;;;;;;;;;;;;;;;16.11;78.58;97856.19;10371110;28;20559;-55
2022/07/23 03:30:12;;;;;;;21.70;12.32;;;;;;;16.13;78.47;97853.53;10371556;28;20407;-55
2022/07/23 03:35:11;;;;;;;17.08;11.70;;;;;;;16.15;78.41;97846.53;10374694;28;20045;-55
2022/07/23 03:40:10;;;;;;;;;;;;;;;16.20;78.64;97847.28;10374972;28;20088;-55
2022/07/23 03:45:10;;;;;;;19.48;12.95;;;;;;;16.21;78.91;97844.63;10374497;28;19908;-55
2022/07/23 03:50:09;;;;;;;25.80;13.15;;;;;;;16.16;79.16;97846.50;10374412;28;20072;-55
2022/07/23 03:55:08;;;;;;;18.00;12.93;;;;;;;16.19;79.32;97850.81;10374198;28;20436;-55
2022/07/23 04:00:09;;;;;;;19.08;11.85;;;;;;;16.22;79.54;97851.59;10373595;28;20087;-55
2022/07/23 04:05:08;;;;;;;18.40;12.32;;;;;;;16.29;79.27;97847.94;10374224;28;20080;-55
2022/07/23 04:10:07;;;;;;;;;;;;;;;16.34;79.18;97855.69;10376964;28;20036;-55
2022/07/23 04:15:08;;;;;;;20.20;12.30;;;;;;;16.46;78.74;97852.78;10380971;28;20008;-55
2022/07/23 04:20:07;;;;;;;15.82;12.05;;;;;;;16.61;78.42;97854.19;10380959;28;20068;-55
2022/07/23 04:25:07;;;;;;;16.40;11.90;;;;;;;16.77;77.87;97854.69;10380647;28;20484;-55
2022/07/23 04:30:06;;;;;;;20.35;13.43;;;;;;;16.79;78.02;97858.13;10380629;28;20484;-55
2022/07/23 04:35:06;;;;;;;24.50;18.52;;;;;;;16.87;77.85;97857.97;10376816;28;20076;-55
2022/07/23 04:40:05;;;;;;;24.38;20.25;;;;;;;16.90;77.74;97850.03;10376091;28;20084;-55
2022/07/23 04:45:05;;;;;;;22.75;14.10;;;;;;;16.99;77.85;97864.69;10376825;28;20084;-55
2022/07/23 04:50:04;;;;;;;19.52;12.25;;;;;;;17.12;77.81;97866.06;10375590;28;20098;-55
2022/07/23 04:55:04;;;;;;;18.90;12.93;;;;;;;17.23;77.66;97863.19;10375969;28;20531;-56
2022/07/23 05:00:03;;;;;;;18.13;12.52;;;;;;;17.33;77.09;97857.69;10375747;28;20476;-56
2022/07/23 05:05:02;;;;;;;18.15;12.95;;;;;;;17.53;76.54;97840.53;10375749;28;20071;-56
2022/07/23 05:10:02;;;;;;;18.58;11.18;;;;;;;17.87;75.76;97850.09;10375436;28;20060;-56
2022/07/23 05:15:01;;;;;;;17.25;11.30;;;;;;;18.21;74.95;97860.47;10374991;28;20080;-56
2022/07/23 05:19:59;;;;;;;19.77;13.65;;;;;;;18.48;73.48;97860.53;10374623;28;20096;-56
2022/07/23 05:24:58;;;;;;;;;;;;;;;18.74;72.45;97870.28;10375323;28;20116;-56
2022/07/23 05:29:57;;;;;;;19.10;13.57;;;;;;;18.93;70.95;97860.00;10374502;28;19990;-56
2022/07/23 05:34:56;;;;;;;19.05;13.15;;;;;;;19.14;70.51;97866.34;10374451;28;20064;-57
2022/07/23 05:39:55;;;;;;;18.67;12.98;;;;;;;19.39;69.17;97866.34;10373946;28;20120;-56
2022/07/23 05:44:54;;;;;;;16.52;12.70;;;;;;;19.69;68.90;97869.69;10373994;28;20108;-56
2022/07/23 05:49:53;;;;;;;20.00;13.20;;;;;;;20.02;67.95;97864.94;10373509;28;20041;-56
2022/07/23 05:54:52;;;;;;;17.50;12.65;;;;;;;20.29;66.94;97865.69;10373348;28;20079;-56
2022/07/23 05:59:51;;;;;;;18.67;13.05;;;;;;;20.55;65.69;97863.00;10373554;28;20037;-57
2022/07/23 06:04:50;;;;;;;18.75;12.13;;;;;;;20.82;65.23;97869.81;10373100;28;20029;-57
2022/07/23 06:09:49;;;;;;;18.23;12.63;;;;;;;21.18;64.32;97868.34;10372988;28;20051;-56
2022/07/23 06:14:49;;;;;;;23.48;12.60;;;;;;;21.43;63.18;97866.44;10372550;28;20072;-56
2022/07/23 06:19:48;;;;;;;15.98;11.82;;;;;;;21.77;61.51;97862.28;10373193;28;20079;-57
2022/07/23 06:24:48;;;;;;;21.48;11.45;;;;;;;22.04;60.52;97860.25;10372609;28;20028;-56
2022/07/23 06:29:47;;;;;;;16.35;11.93;;;;;;;22.33;59.58;97861.50;10372197;28;20067;-56
2022/07/23 06:34:46;;;;;;;17.23;11.63;;;;;;;22.55;58.38;97849.91;10374853;28;20352;-56
2022/07/23 06:39:44;;;;;;;20.65;12.25;;;;;;;22.80;56.54;97850.47;10375550;28;20499;-56
2022/07/23 06:44:43;;;;;;;18.05;11.77;;;;;;;23.03;55.07;97840.56;10375734;28;20025;-56
2022/07/23 06:49:42;;;;;;;16.77;11.80;;;;;;;23.29;53.61;97835.72;10375096;28;20103;-56
2022/07/23 06:54:41;;;;;;;14.55;10.40;;;;;;;23.61;53.79;97837.59;10375223;28;20029;-57
2022/07/23 06:59:40;;;;;;;13.38;10.55;;;;;;;23.86;51.45;97825.69;10375085;28;20043;-57
2022/07/23 07:04:39;;;;;;;17.20;10.98;;;;;;;24.05;51.06;97830.84;10375249;28;20087;-56
2022/07/23 07:09:38;;;;;;;15.70;10.13;;;;;;;24.31;50.13;97815.31;10374613;28;20473;-56
2022/07/23 07:14:37;;;;;;;13.07;9.73;;;;;;;24.56;50.69;97822.75;10375138;28;20041;-56
2022/07/23 07:19:36;;;;;;;13.55;9.68;;;;;;;24.87;50.18;97820.09;10374846;28;20452;-55
2022/07/23 07:24:36;;;;;;;11.90;9.35;;;;;;;25.13;47.11;97814.19;10375040;28;20032;-56
2022/07/23 07:29:34;;;;;;;12.90;9.05;;;;;;;25.43;46.92;97811.50;10374091;28;20060;-55
2022/07/23 07:34:33;;;;;;;15.40;9.55;;;;;;;25.67;46.41;97809.22;10371245;28;20039;-55
2022/07/23 07:39:32;;;;;;;13.98;9.20;;;;;;;25.94;46.64;97802.16;10371141;28;20049;-55
2022/07/23 07:44:31;;;;;;;10.60;8.30;;;;;;;26.25;46.05;97802.06;10372347;28;20036;-55
2022/07/23 07:49:30;;;;;;;13.23;8.18;;;;;;;26.43;44.23;97795.53;10377956;28;20041;-56
2022/07/23 07:54:29;;;;;;;15.70;8.45;;;;;;;26.74;42.75;97790.88;10378142;28;20028;-55
2022/07/23 07:59:28;;;;;;;15.82;8.32;;;;;;;27.04;42.72;97789.81;10378065;28;20076;-56
2022/07/23 08:04:27;;;;;;;13.60;8.05;;;;;;;27.31;41.74;97779.94;10377629;28;20076;-56
2022/07/23 08:09:26;;;;;;;13.25;8.18;;;;;;;27.64;41.02;97783.09;10376624;28;20047;-56
2022/07/23 08:14:25;;;;;;;13.15;7.32;;;;;;;27.75;39.42;97777.81;10377576;28;20037;-56
2022/07/23 08:19:24;;;;;;;10.48;7.03;;;;;;;28.07;37.69;97772.03;10377944;28;20756;-56
2022/07/23 08:24:23;;;;;;;11.23;7.30;;;;;;;28.47;37.31;97769.97;10376871;28;20491;-56
2022/07/23 08:29:22;;;;;;;8.35;6.43;;;;;;;28.75;37.81;97776.81;10376465;28;20111;-56
2022/07/23 08:34:21;;;;;;;9.70;7.13;;;;;;;29.06;37.66;97778.06;10376850;28;20112;-56
2022/07/23 08:39:20;;;;;;;10.85;7.57;;;;;;;29.32;36.58;97772.56;10376737;28;20045;-56
2022/07/23 08:44:19;;;;;;;11.82;7.35;;;;;;;29.59;35.60;97768.69;10376998;28;20699;-56
2022/07/23 08:49:18;;;;;;;12.57;7.38;;;;;;;29.84;34.09;97773.00;10369941;28;20064;-55
2022/07/23 08:54:18;;;;;;;8.07;6.10;;;;;;;30.10;33.80;97763.72;10375456;28;20376;-55
2022/07/23 08:59:17;;;;;;;12.20;6.15;;;;;;;30.38;33.08;97756.13;10374621;28;20414;-57
2022/07/23 09:04:16;;;;;;;8.73;5.72;;;;;;;30.64;29.93;97761.19;10375722;28;20040;-57
2022/07/23 09:09:19;;;;;;;9.13;5.68;;;;;;;30.90;26.74;97750.97;10375356;28;20048;-56
2022/07/23 09:14:38;;;;;;;10.65;6.18;;;;;;;31.27;27.29;97746.03;10374820;28;20517;-57
2022/07/23 09:19:38;;;;;;;9.93;5.38;;;;;;;31.55;23.75;97746.38;10374446;28;20068;-56
2022/07/23 09:24:37;;;;;;;13.40;5.72;;;;;;;31.91;24.32;97736.88;10374964;28;20073;-56
2022/07/23 09:29:35;;;;;;;8.35;5.57;;;;;;;32.28;25.02;97730.09;10374710;28;20028;-56
2022/07/23 09:34:39;;;;;;;11.43;6.15;;;;;;;32.56;23.90;97736.50;10377671;28;20580;-56
2022/07/23 09:39:38;;;;;;;8.00;5.03;;;;;;;32.80;23.04;97723.50;10376671;28;20045;-56
2022/07/23 09:44:41;;;;;;;10.57;5.18;;;;;;;32.99;22.57;97716.41;10377254;28;20025;-56
2022/07/23 09:49:56;;;;;;;10.13;5.78;;;;;;;33.23;23.24;97724.91;10376243;28;20079;-57
2022/07/23 09:55:14;;;;;;;9.35;5.68;;;;;;;33.30;22.20;97719.75;10376968;28;20076;-56
2022/07/23 10:00:14;;;;;;;9.68;5.50;;;;;;;33.43;22.60;97720.31;10376973;28;20052;-57
2022/07/23 10:05:13;;;;;;;8.13;5.38;;;;;;;33.60;23.03;97720.53;10376121;28;20064;-57
2022/07/23 10:10:14;;;;;;;9.73;5.70;;;;;;;33.66;22.63;97693.91;10376162;28;20058;-57
2022/07/23 10:15:13;;;;;;;7.25;5.22;;;;;;;33.65;21.33;97708.38;10375930;28;20068;-57
2022/07/23 10:20:12;;;;;;;17.58;6.03;;;;;;;33.80;21.86;97697.09;10376600;28;20041;-57
2022/07/23 10:25:14;;;;;;;8.93;6.07;;;;;;;33.99;22.21;97698.84;10375985;28;20407;-57
2022/07/23 10:30:28;;;;;;;10.05;5.70;;;;;;;34.05;19.92;97680.25;10375591;28;20061;-57
2022/07/23 10:35:36;;;;;;;14.55;5.60;;;;;;;34.31;20.68;97676.84;10372242;28;20060;-57
2022/07/23 10:40:35;;;;;;;9.77;6.00;;;;;;;34.41;19.04;97657.91;10372061;28;20084;-57
2022/07/23 10:45:35;;;;;;;12.50;5.93;;;;;;;34.55;20.53;97675.38;10372369;28;20088;-57
2022/07/23 10:50:37;;;;;;;13.45;5.75;;;;;;;34.60;20.07;97673.06;10371472;28;20072;-55
2022/07/23 10:55:36;;;;;;;10.77;6.15;;;;;;;34.73;19.90;97662.75;10371971;28;20079;-55
2022/07/23 11:00:37;;;;;;;12.07;5.38;;;;;;;34.84;18.71;97661.63;10372108;28;20044;-55
2022/07/23 11:05:44;;;;;;;9.43;5.53;;;;;;;35.14;18.54;97653.09;10371319;28;20113;-55
2022/07/23 11:10:47;;;;;;;12.05;5.85;;;;;;;35.25;17.93;97643.91;10371728;28;20080;-55
2022/07/23 11:16:01;;;;;;;9.63;5.43;;;;;;;35.37;18.67;97635.53;10370982;28;20127;-55
2022/07/23 11:21:20;;;;;;;12.95;5.57;;;;;;;35.41;18.42;97634.19;10376056;28;20064;-55
2022/07/23 11:26:42;;;;;;;11.88;5.40;;;;;;;35.24;17.27;97631.41;10338213;28;20064;-58
2022/07/23 11:31:59;;;;;;;11.50;5.28;;;;;;;35.37;18.37;97616.66;10361278;28;20380;-57
2022/07/23 11:36:59;;;;;;;12.57;5.40;;;;;;;35.51;17.73;97618.75;10378543;28;20084;-57
2022/07/23 11:42:01;;;;;;;9.85;4.90;;;;;;;35.72;17.53;97613.78;10377914;28;20311;-57
2022/07/23 11:47:11;;;;;;;10.02;5.50;;;;;;;35.80;17.34;97604.00;10378258;28;20084;-57
2022/07/23 11:52:13;;;;;;;10.23;4.93;;;;;;;35.94;17.77;97600.66;10378608;28;20507;-57
2022/07/23 11:57:12;;;;;;;17.60;5.57;;;;;;;35.92;14.78;97606.22;10378737;28;20083;-57
2022/07/23 12:02:11;;;;;;;11.13;5.50;;;;;;;36.04;15.52;97609.47;10378322;28;20371;-57
2022/07/23 12:07:29;;;;;;;16.60;5.57;;;;;;;36.29;15.45;97593.31;10378066;28;20072;-57
2022/07/23 12:12:35;;;;;;;13.02;5.40;;;;;;;36.26;15.66;97588.25;10377274;28;20080;-56
2022/07/23 12:17:40;;;;;;;14.00;6.10;;;;;;;36.33;16.84;97590.09;10377870;28;20083;-56
2022/07/23 12:22:42;;;;;;;9.60;5.75;;;;;;;36.57;16.99;97596.53;10377322;28;20072;-56
2022/07/23 12:27:43;;;;;;;12.70;6.25;;;;;;;36.45;17.31;97587.06;10377233;28;20073;-56
2022/07/23 12:32:46;;;;;;;11.48;5.45;;;;;;;36.26;16.88;97577.44;10376685;28;20080;-56
2022/07/23 12:37:48;;;;;;;12.25;6.38;;;;;;;36.25;16.50;97570.34;10376786;28;20072;-56
2022/07/23 12:42:49;;;;;;;11.65;5.82;;;;;;;36.50;18.03;97569.31;10372809;28;20073;-57
2022/07/23 12:47:59;;;;;;;12.23;6.60;;;;;;;36.73;17.54;97569.47;10372892;28;20064;-58
2022/07/23 12:53:10;;;;;;;9.85;5.80;;;;;;;37.03;16.71;97566.25;10374328;28;20103;-57
2022/07/23 12:58:13;;;;;;;11.88;5.88;;;;;;;36.93;16.63;97559.16;10372040;28;20492;-56
2022/07/23 13:03:35;;;;;;;10.43;5.47;;;;;;;36.96;16.80;97552.53;10336604;28;20124;-56
2022/07/23 13:08:36;;;;;;;14.32;5.70;;;;;;;36.95;17.19;97548.13;10323268;28;20116;-56
2022/07/23 13:13:35;;;;;;;9.52;5.50;;;;;;;37.07;16.60;97537.81;10330962;28;20134;-56
2022/07/23 13:18:34;;;;;;;16.55;5.70;;;;;;;36.73;16.20;97549.72;10329276;28;20076;-57
2022/07/23 13:23:34;;;;;;;11.73;5.50;;;;;;;36.87;16.16;97542.75;10331736;28;20132;-56
2022/07/23 13:28:33;;;;;;;12.02;6.63;;;;;;;37.35;16.40;97539.06;10333157;28;20068;-56
2022/07/23 13:33:32;;;;;;;13.80;5.97;;;;;;;37.66;15.88;97548.22;10309866;28;20492;-57
2022/07/23 13:38:31;;;;;;;11.25;5.40;;;;;;;37.22;16.00;97530.66;10318091;28;20176;-57
2022/07/23 13:43:31;;;;;;;11.27;5.60;;;;;;;37.12;16.32;97541.69;10330626;28;20115;-57
2022/07/23 13:48:30;;;;;;;10.18;6.25;;;;;;;36.95;15.98;97540.03;10330427;28;20064;-55
2022/07/23 13:53:29;;;;;;;12.48;6.15;;;;;;;37.00;16.11;97549.34;10327303;28;20049;-57
2022/07/23 13:58:28;;;;;;;11.10;5.45;;;;;;;37.13;15.94;97539.81;10290462;28;20073;-56
2022/07/23 14:03:27;;;;;;;10.35;5.75;;;;;;;37.08;15.40;97534.94;10288968;28;20109;-56
2022/07/23 14:08:26;;;;;;;12.65;6.45;;;;;;;36.93;15.83;97523.97;10289265;28;20025;-56
2022/07/23 14:13:25;;;;;;;11.05;5.82;;;;;;;36.97;15.60;97522.59;10330658;28;20116;-56
2022/07/23 14:18:24;;;;;;;11.45;5.95;;;;;;;37.17;16.14;97519.53;10370571;28;20067;-56
2022/07/23 14:23:23;;;;;;;13.85;7.53;;;;;;;37.33;16.14;97527.56;10369524;28;20122;-57
2022/07/23 14:28:22;;;;;;;11.98;5.72;;;;;;;37.33;16.22;97522.16;10368965;28;20036;-57
2022/07/23 14:33:21;;;;;;;10.65;6.03;;;;;;;37.23;15.47;97522.34;10372289;28;20033;-57
2022/07/23 14:38:20;;;;;;;13.02;6.18;;;;;;;37.15;15.51;97518.84;10374070;28;20148;-58
2022/07/23 14:43:19;;;;;;;12.05;5.45;;;;;;;36.94;15.00;97501.31;10373888;28;20044;-56
2022/07/23 14:48:18;;;;;;;13.05;5.72;;;;;;;37.23;14.87;97505.28;10372578;28;20787;-57
2022/07/23 14:53:17;;;;;;;12.27;5.75;;;;;;;37.25;15.54;97505.09;10372665;28;20124;-57
2022/07/23 14:58:17;;;;;;;12.48;5.78;;;;;;;37.08;15.55;97504.34;10373716;28;20033;-57
2022/07/23 15:03:16;;;;;;;15.10;5.90;;;;;;;37.01;16.09;97496.09;10373615;28;20067;-57
2022/07/23 15:08:15;;;;;;;15.48;9.15;;;;;;;37.15;15.90;97483.69;10373666;28;20056;-57
2022/07/23 15:13:14;;;;;;;21.88;11.35;;;;;;;36.83;16.30;97490.88;10373671;28;20025;-57
2022/07/23 15:18:13;;;;;;;13.95;7.47;;;;;;;36.67;16.12;97490.91;10373141;28;20048;-57
2022/07/23 15:23:12;;;;;;;11.95;5.65;;;;;;;36.54;15.71;97484.19;10368937;28;20045;-57
2022/07/23 15:28:11;;;;;;;12.05;6.20;;;;;;;36.72;15.74;97480.41;10372268;28;20092;-57
2022/07/23 15:33:10;;;;;;;11.90;5.38;;;;;;;36.78;16.14;97482.44;10369487;28;20562;-57
2022/07/23 15:38:09;;;;;;;11.68;5.65;;;;;;;36.65;16.64;97488.41;10369378;28;20045;-57
2022/07/23 15:43:08;;;;;;;10.43;5.47;;;;;;;36.47;17.05;97483.16;10368584;28;20048;-57
2022/07/23 15:48:07;;;;;;;9.90;5.30;;;;;;;36.37;17.84;97482.53;10369072;28;20431;-57
2022/07/23 15:53:06;;;;;;;10.38;5.72;;;;;;;36.42;18.12;97479.28;10362864;28;20121;-57
2022/07/23 15:58:06;;;;;;;10.82;6.20;;;;;;;36.26;18.21;97481.00;10367687;28;20068;-55
2022/07/23 16:03:05;;;;;;;14.35;5.82;;;;;;;36.04;18.33;97489.75;10367636;28;20056;-55
2022/07/23 16:08:04;;;;;;;11.30;5.97;;;;;;;35.92;18.61;97486.56;10373525;28;20064;-58
2022/07/23 16:13:03;;;;;;;12.50;6.22;;;;;;;36.00;18.98;97485.75;10374561;28;20075;-57
2022/07/23 16:18:03;;;;;;;12.95;6.32;;;;;;;35.93;18.96;97477.47;10375342;28;20036;-57
2022/07/23 16:23:02;;;;;;;12.20;6.05;;;;;;;35.75;18.12;97481.16;10368955;28;20079;-58
2022/07/23 16:28:01;;;;;;;15.18;8.10;;;;;;;35.71;19.38;97490.63;10375269;28;20072;-56
2022/07/23 16:33:01;;;;;;;12.82;6.15;;;;;;;35.76;22.58;97484.69;10375329;28;20484;-56
2022/07/23 16:38:02;;;;;;;15.88;8.02;;;;;;;35.65;24.11;97485.88;10373721;28;20563;-55
2022/07/23 16:43:01;;;;;;;12.20;6.70;;;;;;;35.50;25.10;97490.19;10375709;28;20099;-56
2022/07/23 16:48:00;;;;;;;14.93;6.55;;;;;;;35.30;26.01;97495.88;10375403;28;20071;-57
2022/07/23 16:52:59;;;;;;;15.18;6.97;;;;;;;35.09;26.25;97498.16;10367898;28;20021;-57
2022/07/23 16:57:58;;;;;;;16.25;6.93;;;;;;;34.84;26.48;97498.03;10374744;28;20547;-57
2022/07/23 17:02:57;;;;;;;24.27;8.15;;;;;;;34.45;26.99;97493.09;10374363;28;20484;-55
2022/07/23 17:07:56;;;;;;;24.40;8.57;;;;;;;34.09;27.65;97489.56;10374026;28;20063;-56
2022/07/23 17:12:57;;;;;;;21.85;7.30;;;;;;;33.70;28.18;97484.56;10374102;28;20156;-56
2022/07/23 17:17:56;;;;;;;13.70;6.70;;;;;;;33.32;29.55;97488.31;10373834;28;20076;-56
2022/07/23 17:22:55;;;;;;;12.98;7.60;;;;;;;32.87;30.29;97486.41;10367827;28;20047;-57
2022/07/23 17:27:54;;;;;;;12.95;6.60;;;;;;;32.48;30.35;97486.53;10373942;28;20063;-57
2022/07/23 17:32:53;;;;;;;11.93;6.32;;;;;;;32.03;31.08;97484.47;10372899;28;20032;-57
2022/07/23 17:37:52;;;;;;;11.77;6.45;;;;;;;31.69;31.66;97479.56;10373213;28;20065;-56
2022/07/23 17:42:51;;;;;;;12.68;6.95;;;;;;;31.29;32.35;97493.88;10372940;28;20059;-56
2022/07/23 17:47:50;;;;;;;13.32;7.38;;;;;;;30.85;33.35;97482.56;10373503;28;20111;-56
2022/07/23 17:52:55;;;;;;;14.32;7.18;;;;;;;30.43;34.57;97494.22;10372450;28;20123;-56
2022/07/23 17:57:54;;;;;;;16.27;7.50;;;;;;;30.03;34.85;97492.25;10369613;28;20474;-56
2022/07/23 18:02:54;;;;;;;13.48;7.03;;;;;;;29.66;35.39;97497.13;10372013;28;20132;-56
2022/07/23 18:07:53;;;;;;;14.57;8.00;;;;;;;29.36;36.25;97506.69;10371814;28;20072;-56
2022/07/23 18:12:52;;;;;;;14.80;7.68;;;;;;;29.01;36.43;97518.38;10371896;28;20037;-56
2022/07/23 18:17:51;;;;;;;18.40;8.13;;;;;;;28.77;36.44;97525.69;10370055;28;20045;-56
2022/07/23 18:22:50;;;;;;;13.95;7.45;;;;;;;28.46;36.87;97528.91;10371334;28;20052;-56
2022/07/23 18:27:49;;;;;;;16.85;8.30;;;;;;;28.21;38.37;97532.59;10364296;28;20037;-56
2022/07/23 18:32:48;;;;;;;15.02;8.25;;;;;;;27.93;38.57;97547.16;10372455;28;20423;-56
2022/07/23 18:37:47;;;;;;;13.27;7.47;;;;;;;27.69;39.31;97552.50;10373706;28;20035;-56
2022/07/23 18:42:46;;;;;;;14.52;8.93;;;;;;;27.46;40.15;97548.84;10372625;28;20076;-56
2022/07/23 18:47:45;;;;;;;15.77;8.57;;;;;;;27.27;40.15;97553.78;10373056;28;20044;-56
2022/07/23 18:52:44;;;;;;;15.02;8.10;;;;;;;27.07;39.46;97565.88;10370623;28;20080;-57
2022/07/23 18:57:43;;;;;;;12.57;7.63;;;;;;;26.87;38.78;97562.81;10372649;28;20025;-56
2022/07/23 19:02:43;;;;;;;15.15;7.65;;;;;;;26.67;38.32;97565.97;10371682;28;20449;-55
2022/07/23 19:07:42;;;;;;;14.98;7.80;;;;;;;26.48;37.97;97567.25;10373275;28;20076;-55
2022/07/23 19:12:41;;;;;;;14.68;8.18;;;;;;;26.28;37.87;97576.59;10372378;28;20115;-55
2022/07/23 19:17:40;;;;;;;11.75;7.72;;;;;;;26.16;38.00;97578.25;10371633;28;20483;-55
2022/07/23 19:22:39;;;;;;;12.40;7.35;;;;;;;26.07;38.10;97586.00;10372434;28;20495;-55
2022/07/23 19:27:38;;;;;;;15.30;7.75;;;;;;;25.95;37.95;97585.00;10370929;28;20037;-55
2022/07/23 19:32:37;;;;;;;12.70;7.45;;;;;;;25.80;38.07;97580.69;10369199;28;20067;-56
2022/07/23 19:37:36;;;;;;;16.00;9.73;;;;;;;25.71;40.38;97598.97;10368450;28;20079;-56
2022/07/23 19:42:35;;;;;;;18.58;9.10;;;;;;;25.63;42.30;97590.63;10374347;28;20645;-56
2022/07/23 19:47:35;;;;;;;13.65;9.40;;;;;;;25.45;42.86;97591.75;10376955;28;20064;-56
2022/07/23 19:52:34;;;;;;;19.55;10.35;;;;;;;25.33;43.69;97596.91;10375911;28;20095;-56
2022/07/23 19:57:34;;;;;;;16.65;9.27;;;;;;;25.22;43.35;97604.72;10375132;28;20525;-56
2022/07/23 20:02:33;;;;;;;14.80;8.68;;;;;;;25.10;43.28;97602.81;10375125;28;20072;-57
2022/07/23 20:07:32;;;;;;;14.85;8.23;;;;;;;24.93;42.95;97603.00;10376998;28;20064;-56
2022/07/23 20:12:31;;;;;;;15.70;10.98;;;;;;;24.72;45.65;97607.81;10377107;28;20489;-56
2022/07/23 20:17:31;;;;;;;16.08;10.18;;;;;;;24.48;47.23;97611.84;10374367;28;20136;-56
2022/07/23 20:22:30;;;;;;;17.65;10.25;;;;;;;24.26;48.05;97608.75;10375036;28;20487;-56
2022/07/23 20:27:29;;;;;;;19.80;9.13;;;;;;;24.08;48.23;97612.47;10373117;28;20534;-56
2022/07/23 20:32:28;;;;;;;14.05;8.00;;;;;;;23.92;48.55;97610.69;10375297;28;20469;-56
2022/07/23 20:37:27;;;;;;;16.63;8.70;;;;;;;23.77;48.54;97603.59;10375107;28;20504;-56
2022/07/23 20:42:26;;;;;;;12.18;9.27;;;;;;;23.67;48.16;97619.16;10372088;28;20044;-56
2022/07/23 20:47:25;;;;;;;15.20;8.77;;;;;;;23.52;48.41;97618.22;10372818;28;20041;-56
2022/07/23 20:52:24;;;;;;;14.10;8.32;;;;;;;23.42;48.24;97609.91;10371816;28;20033;-56
2022/07/23 20:57:23;;;;;;;16.63;9.15;;;;;;;23.35;48.75;97610.31;10370194;28;20527;-56
2022/07/23 21:02:23;;;;;;;14.93;8.35;;;;;;;23.25;49.16;97619.72;10371499;28;20215;-56
2022/07/23 21:07:22;;;;;;;16.77;8.18;;;;;;;23.15;48.99;97617.56;10371385;28;20119;-56
2022/07/23 21:12:22;;;;;;;16.23;8.05;;;;;;;23.05;48.78;97618.16;10373511;28;20087;-56
2022/07/23 21:17:21;;;;;;;14.70;8.55;;;;;;;22.97;48.62;97619.41;10373590;28;20064;-56
2022/07/23 21:22:20;;;;;;;14.52;7.80;;;;;;;22.92;48.52;97612.66;10372016;28;20768;-56
2022/07/23 21:27:19;;;;;;;15.38;9.30;;;;;;;22.90;49.24;97620.66;10373312;28;20075;-56
2022/07/23 21:32:18;;;;;;;16.58;10.20;;;;;;;22.76;50.92;97626.72;10373581;28;20035;-56
2022/07/23 21:37:17;;;;;;;17.60;10.07;;;;;;;22.65;52.78;97633.44;10375304;28;20056;-56
2022/07/23 21:42:16;;;;;;;16.73;9.38;;;;;;;22.52;53.69;97625.28;10376157;28;20047;-55
2022/07/23 21:47:15;;;;;;;14.07;9.23;;;;;;;22.46;54.30;97628.22;10376844;28;20032;-55
2022/07/23 21:52:14;;;;;;;20.15;9.73;;;;;;;22.31;54.59;97625.44;10373794;28;20048;-55
2022/07/23 21:57:13;;;;;;;16.63;8.52;;;;;;;22.16;54.51;97626.22;10375628;28;20072;-56
2022/07/23 22:02:12;;;;;;;15.10;10.13;;;;;;;22.09;54.45;97624.81;10372946;28;20021;-56
2022/07/23 22:07:13;;;;;;;19.35;10.23;;;;;;;21.94;55.46;97623.75;10375750;28;20039;-56
2022/07/23 22:12:12;;;;;;;14.25;9.85;;;;;;;21.88;55.92;97632.84;10375361;28;20084;-56
2022/07/23 22:17:11;;;;;;;15.32;9.85;;;;;;;21.72;56.70;97626.56;10374978;28;20048;-55
2022/07/23 22:22:10;;;;;;;18.85;9.80;;;;;;;21.54;57.03;97634.44;10368951;28;20033;-55
2022/07/23 22:27:09;;;;;;;18.42;10.18;;;;;;;21.40;57.02;97631.59;10374616;28;20029;-56
2022/07/23 22:32:08;;;;;;;19.15;10.57;;;;;;;21.32;56.94;97631.09;10372995;28;20036;-56
2022/07/23 22:37:07;;;;;;;14.75;8.93;;;;;;;21.23;57.29;97629.72;10370696;28;20033;-55
2022/07/23 22:42:06;;;;;;;16.40;9.43;;;;;;;21.15;57.62;97631.84;10371324;28;20049;-55
2022/07/23 22:47:05;;;;;;;17.25;8.88;;;;;;;21.04;57.46;97627.06;10370286;28;20106;-56
2022/07/23 22:52:04;;;;;;;16.95;9.32;;;;;;;20.95;58.00;97624.81;10370963;28;20077;-56
2022/07/23 22:57:03;;;;;;;16.67;9.63;;;;;;;20.88;58.29;97632.16;10371970;28;20075;-56
2022/07/23 23:02:02;;;;;;;14.52;9.77;;;;;;;20.80;58.83;97628.16;10370616;28;20057;-55